Time;durP1;ratioP1;P1;durP2;ratioP2;P2;SDS_P1;SDS_P2;PMS_P1;PMS_P2;Temp;Humidity;BMP_temperature;BMP_pressure;BME280_temperature;BME280_humidity;BME280_pressure;Samples;Min_cycle;Max_cycle;Signal;HPM_P1;HPM_P2
2021/06/25 00:01:41;;;;;;;15.93;6.12;;;;;;;22.22;68.00;99551.73;1736090;81;21069;-64
2021/06/25 00:04:07;;;;;;;20.52;5.25;;;;;;;22.20;68.10;99549.90;1730656;82;21478;-62
2021/06/25 00:06:34;;;;;;;18.95;5.37;;;;;;;22.20;68.17;99554.63;1744474;82;21089;-62
2021/06/25 00:09:04;;;;;;;13.40;4.75;;;;;;;22.20;68.19;99558.22;1747476;81;21521;-64
2021/06/25 00:11:30;;;;;;;15.32;5.08;;;;;;;22.15;68.62;99558.45;1740067;82;21055;-63
2021/06/25 00:13:57;;;;;;;17.70;5.22;;;;;;;22.06;69.21;99564.73;1736050;82;21060;-67
2021/06/25 00:16:23;;;;;;;16.27;5.08;;;;;;;21.92;69.68;99564.33;1738679;82;21481;-65
2021/06/25 00:18:50;;;;;;;13.72;4.78;;;;;;;21.77;70.03;99564.45;1745396;81;21064;-64
2021/06/25 00:21:17;;;;;;;16.65;5.42;;;;;;;21.68;70.31;99574.84;1747194;82;21034;-66
2021/06/25 00:23:44;;;;;;;18.60;5.53;;;;;;;21.62;70.76;99568.50;1746734;81;21122;-65
2021/06/25 00:26:11;;;;;;;15.10;5.40;;;;;;;21.60;71.04;99561.95;1740710;82;21021;-62
2021/06/25 00:28:38;;;;;;;15.30;4.92;;;;;;;21.62;70.85;99564.34;1746563;81;21551;-63
2021/06/25 00:31:04;;;;;;;17.52;5.67;;;;;;;21.56;70.93;99563.80;1724964;82;21094;-62
2021/06/25 00:33:30;;;;;;;18.50;5.40;;;;;;;21.44;71.24;99543.03;1746178;81;21097;-63
2021/06/25 00:35:58;;;;;;;23.55;5.78;;;;;;;21.45;71.73;99548.80;1737727;82;21525;-62
2021/06/25 00:38:25;;;;;;;14.13;4.97;;;;;;;21.39;72.15;99546.63;1745739;81;21046;-63
2021/06/25 00:40:51;;;;;;;17.48;5.20;;;;;;;21.34;72.06;99539.35;1745404;82;21117;-62
2021/06/25 00:43:19;;;;;;;17.70;5.08;;;;;;;21.24;72.22;99538.44;1747547;81;21564;-63
2021/06/25 00:45:46;;;;;;;13.00;5.65;;;;;;;21.12;72.48;99550.32;1747573;82;21055;-61
2021/06/25 00:48:12;;;;;;;13.60;5.15;;;;;;;21.00;72.99;99550.30;1743702;81;21061;-61
2021/06/25 00:50:40;;;;;;;16.15;6.30;;;;;;;20.93;73.39;99552.02;1749070;82;21044;-61
2021/06/25 00:53:07;;;;;;;17.42;6.97;;;;;;;20.85;73.76;99551.78;1747371;81;21113;-63
2021/06/25 00:55:42;;;;;;;13.93;6.80;;;;;;;20.72;74.27;99541.05;1748965;81;21061;-63
2021/06/25 00:58:15;;;;;;;14.87;7.25;;;;;;;20.71;74.79;99549.11;1755452;80;21557;-64
2021/06/25 01:00:42;;;;;;;22.02;7.28;;;;;;;20.61;75.34;99550.94;1760126;81;21564;-62
2021/06/25 01:03:08;;;;;;;15.35;7.40;;;;;;;20.54;75.79;99558.98;1748851;81;21039;-63
2021/06/25 01:05:35;;;;;;;22.52;7.70;;;;;;;20.54;76.27;99556.22;1743748;81;21147;-65
2021/06/25 01:08:06;;;;;;;21.97;7.87;;;;;;;20.56;76.55;99547.81;1758366;80;21573;-62
2021/06/25 01:10:36;;;;;;;19.52;7.37;;;;;;;20.61;76.94;99544.84;1733737;81;21031;-61
2021/06/25 01:13:08;;;;;;;21.00;7.30;;;;;;;20.69;77.03;99543.13;1760676;80;21068;-63
2021/06/25 01:15:35;;;;;;;16.48;7.30;;;;;;;20.71;76.74;99545.77;1760856;81;21057;-64
2021/06/25 01:18:02;;;;;;;12.30;6.53;;;;;;;20.70;76.53;99534.47;1760337;80;21531;-63
2021/06/25 01:20:30;;;;;;;17.15;6.40;;;;;;;20.71;76.25;99535.28;1753701;81;20974;-63
2021/06/25 01:22:57;;;;;;;15.08;6.50;;;;;;;20.72;76.23;99543.81;1758643;80;21042;-64
2021/06/25 01:25:30;;;;;;;20.65;7.75;;;;;;;20.73;76.07;99544.84;1760924;81;21025;-63
2021/06/25 01:28:04;;;;;;;17.95;7.62;;;;;;;20.67;76.17;99547.60;1760563;80;21014;-63
2021/06/25 01:30:36;;;;;;;18.98;7.62;;;;;;;20.57;76.51;99545.85;1759443;81;21342;-63
2021/06/25 01:33:06;;;;;;;18.20;7.15;;;;;;;20.50;76.81;99540.08;1741323;81;21063;-63
2021/06/25 01:35:34;;;;;;;15.93;7.15;;;;;;;20.47;77.08;99531.09;1741849;81;20958;-63
2021/06/25 01:38:00;;;;;;;18.35;7.08;;;;;;;20.45;77.12;99524.50;1760900;80;21146;-62
2021/06/25 01:40:26;;;;;;;18.60;7.25;;;;;;;20.40;77.18;99534.98;1760938;81;21597;-63
2021/06/25 01:42:53;;;;;;;18.05;6.40;;;;;;;20.34;77.28;99539.33;1760598;80;21050;-63
2021/06/25 01:45:22;;;;;;;16.32;6.70;;;;;;;20.28;77.32;99532.41;1754317;81;21042;-63
2021/06/25 01:47:50;;;;;;;18.30;6.47;;;;;;;20.26;77.42;99534.66;1734599;81;21077;-64
2021/06/25 01:50:22;;;;;;;18.12;6.90;;;;;;;20.27;77.46;99530.79;1760965;81;21516;-64
2021/06/25 01:52:52;;;;;;;21.55;6.78;;;;;;;20.30;77.61;99527.34;1760913;80;21112;-64
2021/06/25 01:55:19;;;;;;;19.65;7.42;;;;;;;20.37;77.59;99532.30;1760941;81;21041;-62
2021/06/25 01:57:46;;;;;;;14.75;6.33;;;;;;;20.43;77.33;99531.53;1748130;81;21559;-64
2021/06/25 02:00:14;;;;;;;15.08;6.08;;;;;;;20.43;77.20;99536.49;1747389;82;21064;-63
2021/06/25 02:02:40;;;;;;;17.10;6.80;;;;;;;20.42;77.26;99538.20;1722358;82;21613;-62
2021/06/25 02:05:10;;;;;;;17.62;6.22;;;;;;;20.37;77.36;99537.05;1746418;82;21041;-64
2021/06/25 02:07:36;;;;;;;15.28;6.42;;;;;;;20.35;77.49;99538.20;1726448;82;21637;-61
2021/06/25 02:10:08;;;;;;;18.92;6.47;;;;;;;20.35;77.51;99540.15;1716255;83;21040;-63
2021/06/25 02:12:36;;;;;;;16.80;7.10;;;;;;;20.33;77.66;99543.23;1743488;81;21074;-66
2021/06/25 02:15:06;;;;;;;15.63;6.53;;;;;;;20.30;77.72;99552.78;1741071;82;21506;-61
2021/06/25 02:17:32;;;;;;;15.95;6.85;;;;;;;20.29;77.78;99555.34;1742956;81;21021;-62
2021/06/25 02:19:59;;;;;;;17.05;6.25;;;;;;;20.25;77.96;99557.13;1747665;82;21500;-63
2021/06/25 02:22:25;;;;;;;16.10;6.83;;;;;;;20.21;78.09;99563.09;1714946;82;21066;-62
2021/06/25 02:24:52;;;;;;;15.80;7.10;;;;;;;20.17;78.23;99558.83;1712414;83;21047;-64
2021/06/25 02:27:18;;;;;;;14.65;7.17;;;;;;;20.13;78.35;99560.65;1732442;81;21082;-63
2021/06/25 02:29:45;;;;;;;15.35;7.70;;;;;;;20.08;78.49;99558.11;1745931;82;20970;-63
2021/06/25 02:32:11;;;;;;;21.82;7.60;;;;;;;20.10;78.72;99555.80;1688971;82;21603;-63
2021/06/25 02:34:38;;;;;;;17.17;7.65;;;;;;;20.19;79.05;99560.66;1745200;82;21357;-62
2021/06/25 02:37:07;;;;;;;13.35;6.90;;;;;;;20.29;79.00;99567.78;1735398;81;21039;-64
2021/06/25 02:39:33;;;;;;;12.85;6.67;;;;;;;20.35;78.83;99568.60;1745309;82;21304;-61
2021/06/25 02:42:00;;;;;;;13.38;6.97;;;;;;;20.39;78.66;99565.16;1747333;81;21564;-64
2021/06/25 02:44:26;;;;;;;13.30;6.72;;;;;;;20.44;78.56;99560.20;1747558;82;21054;-63
2021/06/25 02:46:53;;;;;;;16.75;6.92;;;;;;;20.51;78.39;99554.14;1747421;81;21058;-63
2021/06/25 02:49:20;;;;;;;18.80;6.67;;;;;;;20.56;78.25;99554.72;1747382;82;21548;-67
2021/06/25 02:51:46;;;;;;;20.32;7.50;;;;;;;20.65;78.18;99555.42;1739411;82;21034;-63
2021/06/25 02:54:13;;;;;;;21.68;7.30;;;;;;;20.76;77.95;99548.30;1740864;82;21051;-62
2021/06/25 02:56:40;;;;;;;21.23;7.42;;;;;;;20.89;77.77;99547.75;1747643;81;21552;-64
2021/06/25 02:59:06;;;;;;;18.85;7.50;;;;;;;20.97;77.64;99551.00;1745232;82;21011;-64
2021/06/25 03:01:33;;;;;;;15.75;7.20;;;;;;;21.09;77.44;99552.94;1724874;82;21054;-66
2021/06/25 03:03:59;;;;;;;19.27;7.03;;;;;;;21.25;76.98;99556.67;1747823;81;21100;-63
2021/06/25 03:06:27;;;;;;;17.45;6.67;;;;;;;21.40;76.75;99546.26;1747380;82;21054;-63
2021/06/25 03:08:53;;;;;;;16.40;7.03;;;;;;;21.59;76.42;99556.74;1747625;81;21042;-63
2021/06/25 03:11:20;;;;;;;15.32;6.70;;;;;;;21.73;75.66;99539.17;1744987;82;21024;-61
2021/06/25 03:13:47;;;;;;;18.75;6.35;;;;;;;21.87;75.49;99538.20;1738508;82;21030;-61
2021/06/25 03:16:13;;;;;;;16.85;6.08;;;;;;;22.10;75.25;99537.94;1747309;82;21634;-62
2021/06/25 03:18:40;;;;;;;16.40;6.87;;;;;;;22.42;74.01;99538.02;1747113;81;21084;-63
2021/06/25 03:21:06;;;;;;;19.85;6.83;;;;;;;22.68;73.04;99541.10;1720459;82;21007;-62
2021/06/25 03:23:33;;;;;;;22.05;6.40;;;;;;;22.92;72.09;99545.70;1747495;81;21564;-62
2021/06/25 03:26:00;;;;;;;17.87;6.70;;;;;;;23.18;71.34;99539.00;1745444;82;21045;-63
2021/06/25 03:28:26;;;;;;;18.20;5.97;;;;;;;23.45;70.73;99535.33;1737655;81;21097;-63
2021/06/25 03:30:53;;;;;;;19.42;5.95;;;;;;;23.81;69.56;99527.16;1735437;82;21558;-64
2021/06/25 03:33:19;;;;;;;16.48;5.95;;;;;;;24.20;68.06;99536.34;1744353;81;21102;-63
2021/06/25 03:35:46;;;;;;;23.75;5.83;;;;;;;24.48;67.39;99527.15;1739721;82;21022;-63
2021/06/25 03:38:12;;;;;;;13.32;5.58;;;;;;;24.78;66.66;99535.66;1747597;81;21077;-66
2021/06/25 03:40:39;;;;;;;18.35;5.65;;;;;;;25.30;64.31;99515.44;1743541;82;20971;-64
2021/06/25 03:43:06;;;;;;;15.80;5.85;;;;;;;25.30;64.31;99515.44;1713037;82;21058;-61
2021/06/25 03:45:33;;;;;;;10.95;5.00;;;;;;;25.58;64.04;99516.47;1727875;82;21026;-63
2021/06/25 03:47:59;;;;;;;21.30;6.25;;;;;;;26.11;62.14;99504.63;1720625;82;21029;-64
2021/06/25 03:50:26;;;;;;;15.72;6.53;;;;;;;26.11;62.14;99504.63;1747141;82;21034;-64
2021/06/25 03:52:52;;;;;;;18.65;5.92;;;;;;;26.40;61.42;99494.59;1745533;81;21138;-63
2021/06/25 03:55:19;;;;;;;19.30;6.35;;;;;;;26.51;60.13;99487.94;1726436;82;21019;-64
2021/06/25 03:57:46;;;;;;;16.12;6.25;;;;;;;26.50;59.65;99484.93;1739149;80;21130;-64
2021/06/25 04:00:16;;;;;;;17.73;6.25;;;;;;;26.51;59.58;99484.34;1738588;82;21037;-64
2021/06/25 04:02:47;;;;;;;16.82;6.53;;;;;;;26.61;59.79;99482.23;1716139;82;21056;-62
2021/06/25 04:05:14;;;;;;;18.50;6.17;;;;;;;26.81;59.62;99485.63;1751602;82;21013;-63
2021/06/25 04:07:42;;;;;;;19.55;5.78;;;;;;;27.07;58.99;99488.24;1721233;82;21052;-64
2021/06/25 04:10:10;;;;;;;19.02;6.33;;;;;;;27.23;57.75;99487.97;1753270;82;21069;-63
2021/06/25 04:12:37;;;;;;;22.10;6.35;;;;;;;27.28;57.97;99483.42;1753034;81;21633;-62
2021/06/25 04:15:07;;;;;;;11.28;5.53;;;;;;;27.41;58.04;99472.11;1741790;82;21055;-62
2021/06/25 04:17:34;;;;;;;16.30;5.58;;;;;;;27.49;57.29;99475.97;1749505;80;21066;-61
2021/06/25 04:20:01;;;;;;;17.73;5.97;;;;;;;27.67;57.68;99479.66;1748330;82;21000;-62
2021/06/25 04:22:27;;;;;;;14.90;5.92;;;;;;;27.98;56.73;99488.01;1750406;81;21082;-62
2021/06/25 04:24:54;;;;;;;17.70;5.53;;;;;;;28.24;55.61;99487.50;1753778;82;21002;-63
2021/06/25 04:27:20;;;;;;;15.60;5.70;;;;;;;28.45;55.89;99485.55;1750307;82;21094;-62
2021/06/25 04:29:47;;;;;;;14.58;5.75;;;;;;;28.70;53.35;99479.23;1752604;82;21038;-62
2021/06/25 04:32:16;;;;;;;18.87;4.85;;;;;;;28.64;52.75;99479.59;1714520;83;21106;-60
2021/06/25 04:34:42;;;;;;;15.72;4.85;;;;;;;28.51;52.65;99478.97;1722387;82;20973;-60
2021/06/25 04:37:09;;;;;;;15.48;5.28;;;;;;;28.54;53.19;99484.58;1733957;81;21177;-60
2021/06/25 04:39:35;;;;;;;19.12;4.53;;;;;;;28.60;52.47;99480.77;1753460;82;20984;-61
2021/06/25 04:42:03;;;;;;;11.05;4.83;;;;;;;28.62;52.66;99486.79;1753127;80;21033;-61
2021/06/25 04:44:30;;;;;;;12.13;4.37;;;;;;;28.75;53.23;99487.22;1743967;82;20939;-60
2021/06/25 04:46:57;;;;;;;13.20;4.50;;;;;;;28.93;51.61;99486.03;1750057;80;21033;-61
2021/06/25 04:49:24;;;;;;;13.72;4.70;;;;;;;28.97;52.01;99486.83;1753498;82;20959;-61
2021/06/25 04:51:50;;;;;;;15.95;5.42;;;;;;;29.23;52.32;99492.59;1753193;80;21008;-61
2021/06/25 04:54:17;;;;;;;13.38;4.65;;;;;;;29.44;52.59;99496.02;1749905;82;21183;-61
2021/06/25 04:56:43;;;;;;;18.67;4.45;;;;;;;29.59;52.06;99495.56;1741293;82;21117;-63
2021/06/25 04:59:10;;;;;;;12.75;5.10;;;;;;;29.71;51.98;99497.14;1741120;81;21008;-62
2021/06/25 05:01:36;;;;;;;17.85;5.53;;;;;;;29.87;51.39;99500.30;1749249;82;21159;-62
2021/06/25 05:04:04;;;;;;;16.10;4.83;;;;;;;29.88;50.85;99504.72;1751911;80;21084;-64
2021/06/25 05:06:30;;;;;;;13.55;5.22;;;;;;;29.81;51.15;99517.94;1701422;83;21004;-62
2021/06/25 05:08:57;;;;;;;13.32;4.97;;;;;;;29.62;51.42;99514.98;1727241;82;21017;-62
2021/06/25 05:12:01;;;;;;;19.42;5.00;;;;;;;29.49;51.31;99512.41;1798107;79;23093;-62
2021/06/25 05:14:28;;;;;;;13.30;4.97;;;;;;;29.43;51.02;99516.84;1752979;82;21094;-63
2021/06/25 05:16:54;;;;;;;15.90;5.22;;;;;;;29.52;50.54;99513.81;1752943;82;21102;-62
2021/06/25 05:19:22;;;;;;;14.65;4.83;;;;;;;29.48;50.84;99515.02;1752780;82;21489;-63
2021/06/25 05:21:50;;;;;;;16.85;5.42;;;;;;;29.47;51.27;99513.44;1752986;81;21067;-62
2021/06/25 05:24:17;;;;;;;12.13;4.45;;;;;;;29.52;50.50;99514.41;1752982;82;21525;-63
2021/06/25 05:26:44;;;;;;;14.20;4.58;;;;;;;29.64;50.63;99519.59;1728328;82;21030;-63
2021/06/25 05:29:10;;;;;;;18.30;4.55;;;;;;;29.82;50.28;99523.75;1723003;83;21418;-60
2021/06/25 05:31:37;;;;;;;16.02;4.90;;;;;;;29.98;49.15;99528.33;1736835;82;21050;-63
2021/06/25 05:34:04;;;;;;;14.53;4.62;;;;;;;30.10;49.00;99529.28;1728644;82;21066;-62
2021/06/25 05:36:30;;;;;;;15.93;4.97;;;;;;;30.13;48.98;99535.48;1728044;82;21518;-65
2021/06/25 05:38:57;;;;;;;14.70;4.70;;;;;;;30.33;48.51;99537.98;1747703;82;21023;-62
2021/06/25 05:41:23;;;;;;;16.67;4.25;;;;;;;30.74;48.21;99529.75;1752546;82;21011;-64
2021/06/25 05:43:50;;;;;;;15.60;4.33;;;;;;;31.16;47.16;99530.05;1753171;82;21545;-62
2021/06/25 05:46:16;;;;;;;15.88;4.53;;;;;;;31.36;46.19;99531.66;1753132;82;21023;-62
2021/06/25 05:48:44;;;;;;;17.90;4.80;;;;;;;31.52;46.19;99538.38;1753050;82;21035;-61
2021/06/25 05:51:10;;;;;;;22.13;4.33;;;;;;;31.78;44.48;99535.47;1724034;82;21537;-63
2021/06/25 05:53:38;;;;;;;17.30;4.42;;;;;;;31.86;44.67;99541.22;1752902;81;21071;-62
2021/06/25 05:56:06;;;;;;;16.75;4.60;;;;;;;32.01;44.87;99537.63;1745368;81;21560;-61
2021/06/25 05:58:33;;;;;;;20.45;4.03;;;;;;;32.26;44.50;99536.74;1723247;83;21550;-62
2021/06/25 06:01:01;;;;;;;18.62;4.75;;;;;;;32.47;45.40;99537.86;1722900;83;21194;-63
2021/06/25 06:03:27;;;;;;;19.95;5.08;;;;;;;32.89;43.45;99543.49;1722955;83;21074;-62
2021/06/25 06:05:54;;;;;;;15.78;4.55;;;;;;;33.15;42.65;99543.92;1723026;83;21082;-61
2021/06/25 06:08:20;;;;;;;15.40;4.28;;;;;;;33.38;41.97;99543.91;1723255;83;21667;-64
2021/06/25 06:10:46;;;;;;;21.25;4.20;;;;;;;33.53;41.59;99549.48;1698285;83;21609;-62
2021/06/25 06:13:13;;;;;;;16.32;3.98;;;;;;;33.64;41.24;99555.77;1744533;81;21015;-61
2021/06/25 06:15:41;;;;;;;19.27;4.62;;;;;;;33.85;40.96;99558.79;1749028;81;21058;-61
2021/06/25 06:18:08;;;;;;;23.75;4.37;;;;;;;33.91;41.14;99559.27;1747715;81;21386;-61
2021/06/25 06:20:35;;;;;;;16.32;3.45;;;;;;;33.76;41.76;99553.73;1732905;81;21006;-61
2021/06/25 06:31:21;;;;;;;15.98;3.77;;;;;;;34.13;39.63;99545.55;1733724;80;21050;-61
2021/06/25 06:33:54;;;;;;;16.70;5.03;;;;;;;34.36;38.71;99551.73;1743670;80;21116;-62
2021/06/25 06:36:30;;;;;;;20.32;4.65;;;;;;;34.44;38.23;99561.63;1756579;80;21386;-59
2021/06/25 06:38:50;;;;;;;18.05;3.95;;;;;;;34.26;37.81;99570.48;1691070;83;21054;-61
2021/06/25 06:41:17;;;;;;;21.62;3.98;;;;;;;34.04;38.93;99571.34;1692193;84;21580;-62
2021/06/25 06:43:45;;;;;;;21.02;3.45;;;;;;;34.23;39.44;99567.11;1695311;84;21113;-63
2021/06/25 06:46:11;;;;;;;17.95;4.10;;;;;;;34.49;37.77;99566.77;1722089;83;21560;-62
2021/06/25 06:48:39;;;;;;;17.55;3.40;;;;;;;34.71;38.57;99576.40;1703721;83;21695;-62
2021/06/25 06:51:06;;;;;;;15.50;3.98;;;;;;;34.83;38.13;99572.07;1709406;83;21556;-63
2021/06/25 06:53:33;;;;;;;18.50;4.72;;;;;;;34.81;38.39;99571.73;1690206;83;21072;-62
2021/06/25 06:56:00;;;;;;;15.25;3.40;;;;;;;34.92;39.51;99562.38;1699370;83;21386;-62
2021/06/25 06:58:26;;;;;;;18.57;3.77;;;;;;;35.16;38.31;99565.86;1656573;84;21051;-62
2021/06/25 07:00:54;;;;;;;13.62;2.90;;;;;;;35.22;36.40;99562.67;1690977;84;21049;-61
2021/06/25 07:03:21;;;;;;;14.43;3.00;;;;;;;35.03;36.52;99557.88;1694743;84;21175;-63
2021/06/25 07:05:47;;;;;;;14.70;3.00;;;;;;;35.13;34.60;99567.55;1687589;84;21106;-62
2021/06/25 07:08:14;;;;;;;16.42;3.10;;;;;;;35.22;35.46;99569.13;1687520;84;21969;-62
2021/06/25 07:10:41;;;;;;;20.85;3.15;;;;;;;35.32;34.69;99568.05;1691879;84;21076;-62
2021/06/25 07:13:07;;;;;;;17.00;3.20;;;;;;;35.34;34.40;99574.09;1671398;85;21067;-63
2021/06/25 07:15:33;;;;;;;20.62;3.77;;;;;;;35.53;34.38;99573.81;1726267;82;21100;-61
2021/06/25 07:18:00;;;;;;;18.15;4.75;;;;;;;35.59;34.03;99567.78;1733318;81;21151;-63
2021/06/25 07:20:26;;;;;;;20.45;4.60;;;;;;;35.60;35.39;99569.41;1726793;82;20975;-63
2021/06/25 07:22:53;;;;;;;14.55;3.40;;;;;;;35.59;34.75;99566.36;1738314;82;21514;-62
2021/06/25 07:25:19;;;;;;;17.05;4.67;;;;;;;35.60;35.32;99559.50;1735839;82;21609;-62
2021/06/25 07:27:46;;;;;;;25.08;4.50;;;;;;;35.58;35.33;99559.09;1726851;82;21573;-62
2021/06/25 07:30:14;;;;;;;15.72;3.90;;;;;;;35.56;35.36;99557.34;1722690;82;21106;-62
2021/06/25 07:32:41;;;;;;;17.55;3.77;;;;;;;35.57;35.60;99554.67;1725948;82;21106;-62
2021/06/25 07:35:09;;;;;;;15.48;3.35;;;;;;;35.54;35.51;99550.52;1739526;82;21459;-61
2021/06/25 07:37:35;;;;;;;14.13;3.40;;;;;;;35.61;35.26;99551.16;1722708;82;21576;-61
2021/06/25 07:40:03;;;;;;;11.80;3.10;;;;;;;35.63;34.48;99553.55;1718374;82;21015;-61
2021/06/25 07:42:29;;;;;;;18.85;3.45;;;;;;;35.51;34.46;99554.24;1710948;83;21007;-62
2021/06/25 07:44:56;;;;;;;15.30;3.62;;;;;;;35.41;34.37;99553.29;1719188;82;21533;-62
2021/06/25 07:47:22;;;;;;;16.45;3.58;;;;;;;35.41;33.63;99566.03;1730177;82;21039;-62
2021/06/25 07:49:49;;;;;;;17.50;3.77;;;;;;;35.43;33.65;99577.07;1727617;82;21470;-62
2021/06/25 07:52:15;;;;;;;13.62;3.45;;;;;;;35.40;34.06;99563.02;1718248;82;21045;-61
2021/06/25 07:54:42;;;;;;;17.05;4.45;;;;;;;35.39;34.60;99575.59;1732726;82;20995;-60
2021/06/25 07:57:08;;;;;;;19.52;3.80;;;;;;;35.46;34.44;99568.33;1724535;82;21039;-61
2021/06/25 07:59:36;;;;;;;12.80;3.62;;;;;;;35.50;34.04;99568.23;1706685;82;20991;-62
2021/06/25 08:02:05;;;;;;;12.43;4.15;;;;;;;35.53;33.83;99566.73;1742643;82;21059;-62
2021/06/25 08:04:32;;;;;;;17.10;3.90;;;;;;;35.61;33.22;99562.48;1727875;80;21009;-62
2021/06/25 08:06:58;;;;;;;12.78;3.35;;;;;;;35.66;33.63;99564.78;1729299;82;20988;-61
2021/06/25 08:09:25;;;;;;;46.50;18.87;;;;;;;35.60;34.71;99558.08;1729048;82;21050;-61
2021/06/25 08:11:51;;;;;;;16.60;5.00;;;;;;;35.68;33.99;99560.88;1730569;81;20999;-61
2021/06/25 08:14:18;;;;;;;14.10;3.75;;;;;;;35.90;34.86;99566.75;1729905;82;20991;-61
2021/06/25 08:16:45;;;;;;;13.38;4.03;;;;;;;36.02;33.06;99566.63;1742442;82;21070;-62
2021/06/25 08:19:13;;;;;;;14.68;3.83;;;;;;;36.04;32.53;99562.72;1734098;82;21505;-61
2021/06/25 08:21:39;;;;;;;13.80;4.05;;;;;;;36.05;32.95;99566.53;1753002;82;21114;-61
2021/06/25 08:24:07;;;;;;;18.20;4.05;;;;;;;36.12;33.14;99569.19;1751118;82;20999;-61
2021/06/25 08:26:33;;;;;;;18.25;3.85;;;;;;;36.16;34.22;99568.47;1725122;82;21513;-61
2021/06/25 08:29:00;;;;;;;18.98;4.15;;;;;;;36.28;34.15;99572.59;1748941;82;21128;-62
2021/06/25 08:31:27;;;;;;;14.53;3.77;;;;;;;36.38;34.07;99571.47;1740816;82;21097;-61
2021/06/25 08:33:53;;;;;;;17.62;4.28;;;;;;;36.49;33.55;99570.53;1739755;82;21015;-62
2021/06/25 08:36:19;;;;;;;11.65;3.47;;;;;;;36.51;32.15;99566.61;1732410;82;21544;-62
2021/06/25 08:38:46;;;;;;;25.02;3.98;;;;;;;36.35;33.45;99567.48;1741056;80;21068;-62
2021/06/25 08:41:13;;;;;;;13.50;4.00;;;;;;;36.44;35.35;99559.73;1674476;85;21099;-61
2021/06/25 08:43:39;;;;;;;18.45;3.87;;;;;;;36.54;33.39;99552.95;1729704;82;21021;-61
2021/06/25 08:46:05;;;;;;;14.53;3.60;;;;;;;36.55;33.02;99548.91;1752422;80;21430;-61
2021/06/25 08:48:32;;;;;;;18.50;4.03;;;;;;;36.61;34.09;99541.41;1735173;82;21010;-62
2021/06/25 08:50:59;;;;;;;16.60;3.55;;;;;;;36.65;32.84;99542.09;1732826;82;21144;-61
2021/06/25 08:53:25;;;;;;;11.68;2.60;;;;;;;36.70;31.81;99540.75;1715471;82;21513;-62
2021/06/25 08:55:51;;;;;;;12.78;3.60;;;;;;;36.73;30.46;99543.47;1696911;82;21050;-61
2021/06/25 08:58:21;;;;;;;13.03;3.20;;;;;;;36.61;28.98;99536.36;1740537;82;21608;-62
2021/06/25 09:00:48;;;;;;;12.07;3.17;;;;;;;36.40;30.70;99540.62;1750437;80;21039;-62
2021/06/25 09:03:25;;;;;;;14.10;2.92;;;;;;;36.36;29.87;99525.77;1734219;82;21443;-62
2021/06/25 09:05:53;;;;;;;10.53;3.15;;;;;;;36.39;30.20;99530.52;1752775;82;21020;-61
2021/06/25 09:08:29;;;;;;;16.45;3.55;;;;;;;36.35;31.83;99531.28;1745783;82;21030;-62
2021/06/25 09:10:59;;;;;;;15.23;3.60;;;;;;;36.24;31.09;99542.14;1723950;81;21472;-60
2021/06/25 09:13:37;;;;;;;16.30;3.45;;;;;;;36.20;31.55;99533.74;1723599;82;20999;-60
2021/06/25 09:16:25;;;;;;;13.68;3.30;;;;;;;36.33;32.02;99530.92;1726006;82;20967;-61
2021/06/25 09:19:13;;;;;;;8.83;3.00;;;;;;;36.48;32.46;99529.87;1730939;82;21074;-61
2021/06/25 09:21:59;;;;;;;17.27;3.35;;;;;;;36.58;32.72;99526.73;1743277;82;20987;-60
2021/06/25 09:24:27;;;;;;;14.00;3.12;;;;;;;36.61;30.77;99530.08;1749436;82;20966;-60
2021/06/25 09:27:00;;;;;;;11.78;2.92;;;;;;;36.66;31.31;99532.36;1748989;82;21007;-61
2021/06/25 09:29:29;;;;;;;9.18;2.80;;;;;;;36.77;30.09;99532.02;1670311;85;21552;-60
2021/06/25 09:31:58;;;;;;;12.85;3.52;;;;;;;36.82;30.10;99528.59;1720215;82;21518;-60
2021/06/25 09:34:50;;;;;;;12.00;2.80;;;;;;;36.88;28.40;99530.40;1745492;80;21011;-61
2021/06/25 09:37:18;;;;;;;10.72;2.65;;;;;;;36.85;26.76;99529.09;1752880;82;21087;-61
2021/06/25 09:39:59;;;;;;;14.25;3.42;;;;;;;36.75;27.19;99527.41;1737652;82;21541;-62
2021/06/25 09:42:26;;;;;;;15.00;3.12;;;;;;;36.67;27.78;99526.83;1736664;82;21055;-61
2021/06/25 09:45:00;;;;;;;15.40;3.40;;;;;;;36.64;28.12;99524.91;1743818;82;21629;-62
2021/06/25 09:47:32;;;;;;;14.35;3.25;;;;;;;36.64;29.49;99524.91;1739569;82;21067;-60
2021/06/25 09:50:15;;;;;;;15.78;3.20;;;;;;;36.70;28.08;99521.70;1731731;82;20999;-61
2021/06/25 09:53:06;;;;;;;13.80;2.90;;;;;;;36.71;27.27;99527.52;1732338;79;64023;-73
2021/06/25 10:03:58;;;;;;;10.98;2.85;;;;;;;36.67;28.43;99516.91;1700512;83;21070;-72
2021/06/25 10:06:29;;;;;;;13.30;2.25;;;;;;;36.88;28.32;99523.95;1702167;83;21055;-72
2021/06/25 10:08:56;;;;;;;11.22;2.58;;;;;;;36.97;25.68;99511.28;1723458;83;21031;-72
2021/06/25 10:11:25;;;;;;;10.65;2.55;;;;;;;36.99;25.72;99508.00;1726667;83;21047;-71
2021/06/25 10:13:54;;;;;;;9.60;2.33;;;;;;;37.04;26.19;99510.28;1725959;83;21070;-71
2021/06/25 10:16:22;;;;;;;13.62;2.33;;;;;;;36.98;26.12;99508.63;1712864;83;20984;-71
2021/06/25 10:18:58;;;;;;;12.68;2.80;;;;;;;36.93;26.67;99507.77;1724059;83;21047;-70
2021/06/25 10:21:29;;;;;;;13.65;2.67;;;;;;;36.97;26.55;99502.77;1723551;83;21039;-71
2021/06/25 10:24:01;;;;;;;17.57;3.30;;;;;;;37.05;27.21;99500.52;1707765;83;21047;-70
2021/06/25 10:26:28;;;;;;;16.37;2.98;;;;;;;37.13;27.87;99489.11;1695255;85;21529;-71
2021/06/25 10:28:55;;;;;;;12.50;3.33;;;;;;;37.21;27.04;99481.30;1696194;83;21735;-72
2021/06/25 10:31:24;;;;;;;10.53;2.90;;;;;;;37.28;27.50;99478.83;1726521;83;21066;-72
2021/06/25 10:33:53;;;;;;;11.18;2.80;;;;;;;37.20;28.14;99478.28;1726675;83;21491;-71
2021/06/25 10:36:23;;;;;;;10.30;2.50;;;;;;;37.13;27.87;99473.50;1726743;83;21563;-72
2021/06/25 10:38:50;;;;;;;13.62;3.75;;;;;;;37.04;27.07;99467.72;1726543;82;21090;-72
2021/06/25 10:41:18;;;;;;;12.15;3.10;;;;;;;36.96;27.86;99474.23;1726799;83;21478;-72
2021/06/25 10:43:54;;;;;;;12.90;3.33;;;;;;;36.92;28.27;99476.38;1727049;83;21549;-71
2021/06/25 10:46:33;;;;;;;18.52;3.45;;;;;;;36.91;28.66;99474.82;1714028;83;20987;-72
2021/06/25 10:49:10;;;;;;;10.88;3.00;;;;;;;36.87;27.44;99474.14;1724104;83;21106;-71
2021/06/25 10:51:41;;;;;;;11.20;2.85;;;;;;;36.73;27.77;99479.66;1725749;83;21489;-72
2021/06/25 10:54:17;;;;;;;14.75;3.00;;;;;;;36.71;27.67;99478.51;1726269;83;21660;-71
2021/06/25 10:56:52;;;;;;;11.63;2.83;;;;;;;36.73;28.27;99474.61;1730468;83;21612;-72
2021/06/25 10:59:29;;;;;;;13.10;3.37;;;;;;;36.77;27.63;99474.67;1730646;83;21011;-72
2021/06/25 11:02:02;;;;;;;14.45;3.05;;;;;;;36.83;27.19;99482.77;1730476;83;21117;-71
2021/06/25 11:04:44;;;;;;;12.20;3.47;;;;;;;36.80;27.17;99480.84;1724170;81;21035;-72
2021/06/25 11:07:21;;;;;;;12.00;3.50;;;;;;;36.80;27.87;99476.59;1722525;83;21655;-72
2021/06/25 11:09:53;;;;;;;11.85;2.77;;;;;;;36.81;27.58;99481.64;1695274;83;21521;-72
2021/06/25 11:12:32;;;;;;;11.45;2.50;;;;;;;36.78;27.73;99476.23;1721217;83;21075;-71
2021/06/25 11:15:12;;;;;;;8.43;2.65;;;;;;;36.78;28.07;99476.23;1709117;83;21023;-72
2021/06/25 11:17:55;;;;;;;10.98;1.90;;;;;;;36.69;27.63;99477.56;1693231;85;21091;-72
2021/06/25 11:20:30;;;;;;;10.58;1.90;;;;;;;36.67;26.55;99473.61;1693504;85;21011;-71
2021/06/25 11:23:18;;;;;;;9.28;2.17;;;;;;;36.65;26.31;99478.30;1703833;83;21605;-71
2021/06/25 11:26:00;;;;;;;;;;;;;;;36.59;25.15;99476.49;1721400;83;21011;-71
2021/06/25 11:28:38;;;;;;;8.15;1.90;;;;;;;36.53;27.01;99485.38;1687954;84;20120;-71
2021/06/25 11:31:18;;;;;;;9.65;2.47;;;;;;;36.46;26.17;99478.52;1723334;83;21043;-72
2021/06/25 11:34:00;;;;;;;8.53;1.90;;;;;;;36.36;26.18;99474.13;1686902;83;21087;-72
2021/06/25 11:36:45;;;;;;;10.40;1.92;;;;;;;36.21;26.26;99475.04;1686338;85;20992;-72
2021/06/25 11:39:22;;;;;;;9.70;1.75;;;;;;;35.97;25.80;99470.24;1692247;84;21115;-71
2021/06/25 11:42:09;;;;;;;8.98;2.10;;;;;;;35.76;27.00;99473.08;1715068;84;21012;-71
2021/06/25 11:44:42;;;;;;;7.92;2.10;;;;;;;35.56;27.83;99471.62;1690109;85;21466;-72
2021/06/25 11:47:21;;;;;;;10.08;2.33;;;;;;;35.41;28.21;99473.44;1705481;83;21513;-74
2021/06/25 11:52:27;;;;;;;11.85;2.15;;;;;;;35.16;28.35;99464.02;1690136;84;21075;-73
2021/06/25 11:54:57;;;;;;;10.82;2.10;;;;;;;35.08;28.46;99455.50;1692519;84;21083;-74